Time;durP1;ratioP1;P1;durP2;ratioP2;P2;SDS_P1;SDS_P2;PMS_P1;PMS_P2;Temp;Humidity;BMP_temperature;BMP_pressure;BME280_temperature;BME280_humidity;BME280_pressure;Samples;Min_cycle;Max_cycle;Signal;HPM_P1;HPM_P2
2020/12/07 00:01:44;;;;;;;1.97;1.53;;;2.90;98.00;;;;;;5091689;28;20821;-62
2020/12/07 00:04:10;;;;;;;1.10;0.90;;;2.80;98.00;;;;;;5089913;28;21003;-63
2020/12/07 00:06:43;;;;;;;1.10;1.00;;;2.70;98.00;;;;;;5091463;28;20454;-62
2020/12/07 00:09:12;;;;;;;1.10;1.00;;;2.70;98.00;;;;;;5089963;28;20455;-61
2020/12/07 00:11:39;;;;;;;1.63;1.20;;;2.80;98.00;;;;;;5091466;28;20512;-62
2020/12/07 00:14:05;;;;;;;1.30;1.10;;;2.80;98.00;;;;;;5090038;28;20455;-62
2020/12/07 00:16:34;;;;;;;1.10;0.93;;;2.80;98.00;;;;;;5091411;28;20455;-63
2020/12/07 00:19:01;;;;;;;1.40;1.20;;;2.70;98.00;;;;;;5089440;28;20560;-62
2020/12/07 00:21:27;;;;;;;1.10;1.00;;;2.70;98.00;;;;;;5091496;28;20527;-62
2020/12/07 00:23:55;;;;;;;2.03;1.10;;;2.70;98.00;;;;;;5089540;28;20520;-62
2020/12/07 00:26:22;;;;;;;1.20;1.20;;;2.70;98.00;;;;;;5091417;28;20451;-62
2020/12/07 00:28:49;;;;;;;1.20;1.07;;;2.90;98.00;;;;;;5089639;28;20459;-62
2020/12/07 00:31:15;;;;;;;1.10;0.90;;;3.00;98.00;;;;;;5091286;28;20466;-62
2020/12/07 00:33:42;;;;;;;1.13;1.07;;;3.10;98.00;;;;;;5089530;28;20523;-62
2020/12/07 00:36:09;;;;;;;1.17;1.13;;;3.30;98.00;;;;;;5091206;28;20481;-62
2020/12/07 00:38:35;;;;;;;2.63;1.30;;;3.30;98.00;;;;;;5089521;28;20482;-62
2020/12/07 00:41:02;;;;;;;2.17;1.70;;;3.30;98.00;;;;;;5091130;28;20468;-63
2020/12/07 00:43:29;;;;;;;1.20;1.00;;;3.30;98.00;;;;;;5089458;28;20454;-62
2020/12/07 00:45:57;;;;;;;1.10;1.00;;;3.30;98.00;;;;;;5092498;28;20516;-62
2020/12/07 00:48:24;;;;;;;1.10;1.00;;;3.20;98.00;;;;;;5093422;28;20938;-62
2020/12/07 00:50:50;;;;;;;1.30;1.17;;;3.30;98.00;;;;;;5094903;28;20523;-62
2020/12/07 00:53:17;;;;;;;1.20;1.00;;;3.20;98.00;;;;;;5093000;28;20821;-62
2020/12/07 00:55:44;;;;;;;1.83;1.50;;;3.10;98.00;;;;;;5095025;28;20499;-62
2020/12/07 00:58:11;;;;;;;1.70;1.50;;;3.20;98.00;;;;;;5092857;28;20491;-63
2020/12/07 01:00:38;;;;;;;1.10;0.90;;;3.20;98.00;;;;;;5094795;28;20467;-62
2020/12/07 01:03:04;;;;;;;1.10;1.00;;;3.40;98.00;;;;;;5093057;28;20451;-62
2020/12/07 01:05:31;;;;;;;1.27;1.23;;;3.50;98.00;;;;;;5094705;28;20458;-62
2020/12/07 01:07:57;;;;;;;1.80;1.40;;;3.50;98.00;;;;;;5093217;28;20524;-62
2020/12/07 01:10:24;;;;;;;1.10;1.00;;;3.50;98.00;;;;;;5095097;28;20455;-64
2020/12/07 01:12:50;;;;;;;3.00;1.67;;;3.40;98.00;;;;;;5092509;28;20452;-62
2020/12/07 01:15:17;;;;;;;1.20;1.10;;;3.40;98.00;;;;;;5094914;28;20462;-62
2020/12/07 01:17:44;;;;;;;1.30;1.17;;;3.50;98.00;;;;;;5094400;28;20479;-62
2020/12/07 01:20:11;;;;;;;1.10;0.93;;;3.50;98.00;;;;;;5093592;28;20974;-63
2020/12/07 01:22:38;;;;;;;1.10;1.00;;;3.40;98.00;;;;;;5094864;28;20501;-62
2020/12/07 01:25:05;;;;;;;1.13;1.13;;;3.50;98.00;;;;;;5092996;28;20454;-62
2020/12/07 01:27:34;;;;;;;1.10;0.90;;;3.60;98.00;;;;;;5094591;28;20455;-62
2020/12/07 01:30:01;;;;;;;1.27;1.20;;;3.60;98.00;;;;;;5092896;28;20526;-63
2020/12/07 01:32:30;;;;;;;1.20;1.20;;;3.70;98.00;;;;;;5094603;28;20871;-62
2020/12/07 01:34:57;;;;;;;1.10;1.00;;;3.70;98.00;;;;;;5092562;28;20974;-62
2020/12/07 01:37:24;;;;;;;1.30;1.00;;;3.80;98.00;;;;;;5093790;28;20455;-62
2020/12/07 01:39:52;;;;;;;1.13;1.00;;;3.80;98.00;;;;;;5092376;28;20455;-63
2020/12/07 01:42:19;;;;;;;1.17;1.00;;;3.80;98.00;;;;;;5094042;28;20455;-63
2020/12/07 01:44:46;;;;;;;1.10;1.00;;;3.80;98.00;;;;;;5092248;28;20485;-62
2020/12/07 01:47:24;;;;;;;1.10;1.00;;;3.80;98.00;;;;;;5094126;28;20876;-61
2020/12/07 01:49:51;;;;;;;1.40;1.23;;;3.80;98.00;;;;;;5092669;28;20450;-62
2020/12/07 01:52:27;;;;;;;1.10;0.90;;;3.80;98.00;;;;;;5094020;28;20479;-63
2020/12/07 01:54:53;;;;;;;1.10;1.00;;;3.80;98.00;;;;;;5090835;28;20462;-62
2020/12/07 01:57:25;;;;;;;1.10;1.00;;;3.90;98.00;;;;;;5093068;28;20494;-62
2020/12/07 01:59:51;;;;;;;1.10;1.00;;;3.70;98.00;;;;;;5092360;28;20830;-62
2020/12/07 02:02:18;;;;;;;1.53;1.40;;;3.50;98.00;;;;;;5093748;28;20977;-61
2020/12/07 02:04:44;;;;;;;1.10;0.90;;;3.30;98.00;;;;;;5092064;28;20508;-61
2020/12/07 02:07:18;;;;;;;1.70;1.10;;;3.30;98.00;;;;;;5093750;28;20490;-63
2020/12/07 02:09:45;;;;;;;1.10;0.90;;;3.30;98.00;;;;;;5091746;28;20805;-62
2020/12/07 02:12:12;;;;;;;1.10;0.90;;;3.40;98.00;;;;;;5093501;28;20961;-62
2020/12/07 02:14:38;;;;;;;1.10;0.90;;;3.40;98.00;;;;;;5091159;28;20503;-62
2020/12/07 02:17:05;;;;;;;1.10;0.90;;;3.40;98.00;;;;;;5092627;28;21027;-62
2020/12/07 02:19:33;;;;;;;1.10;0.90;;;3.40;98.00;;;;;;5091583;28;21269;-62
2020/12/07 02:22:01;;;;;;;1.10;1.00;;;3.50;98.00;;;;;;5093024;28;20456;-62
2020/12/07 02:24:28;;;;;;;1.10;0.90;;;3.50;98.00;;;;;;5091391;28;20454;-63
2020/12/07 02:26:54;;;;;;;1.10;1.00;;;3.60;98.00;;;;;;5093154;28;20462;-62
2020/12/07 02:29:27;;;;;;;1.10;1.00;;;3.70;98.00;;;;;;5091232;28;20444;-62
2020/12/07 02:32:02;;;;;;;1.10;0.90;;;3.70;98.00;;;;;;5093102;28;20451;-63
2020/12/07 02:34:29;;;;;;;1.10;0.90;;;3.70;98.00;;;;;;5091248;28;20874;-62
2020/12/07 02:36:55;;;;;;;1.10;0.90;;;3.70;98.00;;;;;;5092879;28;20459;-62
2020/12/07 02:39:22;;;;;;;1.10;1.00;;;3.60;98.00;;;;;;5091303;28;20810;-61
2020/12/07 02:41:49;;;;;;;1.10;1.00;;;3.70;98.00;;;;;;5092810;28;20451;-62
2020/12/07 02:44:15;;;;;;;1.10;1.00;;;3.70;98.00;;;;;;5091257;28;20451;-62
2020/12/07 02:46:42;;;;;;;1.27;1.27;;;3.60;98.00;;;;;;5092816;28;20528;-62
2020/12/07 02:49:08;;;;;;;1.10;0.90;;;3.60;98.00;;;;;;5091151;28;20456;-62
2020/12/07 02:51:35;;;;;;;1.10;1.10;;;3.70;98.00;;;;;;5092712;28;20455;-62
2020/12/07 02:54:01;;;;;;;1.10;0.90;;;3.80;98.00;;;;;;5091016;28;20543;-62
2020/12/07 02:56:29;;;;;;;1.10;0.97;;;3.80;98.00;;;;;;5092720;28;20576;-62
2020/12/07 02:58:55;;;;;;;1.10;0.90;;;3.80;98.00;;;;;;5090896;28;21049;-63
2020/12/07 03:01:22;;;;;;;1.10;0.97;;;3.80;98.00;;;;;;5092547;28;20615;-62
2020/12/07 03:03:48;;;;;;;1.53;1.37;;;3.80;98.00;;;;;;5092658;28;20452;-62
2020/12/07 03:06:15;;;;;;;1.10;0.90;;;3.90;98.00;;;;;;5088726;28;20521;-62
2020/12/07 03:08:42;;;;;;;1.10;0.90;;;3.90;98.00;;;;;;5091868;28;20520;-62
2020/12/07 03:11:08;;;;;;;1.10;0.90;;;3.90;98.00;;;;;;5089883;28;21018;-62
2020/12/07 03:13:36;;;;;;;1.10;1.00;;;3.90;98.00;;;;;;5092290;28;20491;-63
2020/12/07 03:16:03;;;;;;;1.10;0.90;;;3.90;98.00;;;;;;5090502;28;20972;-61
2020/12/07 03:18:30;;;;;;;1.10;0.90;;;4.00;98.00;;;;;;5092146;28;20816;-63
2020/12/07 03:20:58;;;;;;;1.10;0.90;;;3.90;98.00;;;;;;5090969;28;20451;-62
2020/12/07 03:23:24;;;;;;;1.10;0.90;;;4.00;98.00;;;;;;5092292;28;20455;-62
2020/12/07 03:25:51;;;;;;;1.10;0.90;;;4.00;98.00;;;;;;5090445;28;20492;-61
2020/12/07 03:28:18;;;;;;;1.10;0.90;;;4.00;98.00;;;;;;5091235;28;20508;-63
2020/12/07 03:30:46;;;;;;;1.10;1.00;;;4.00;98.00;;;;;;5089617;28;20451;-62
2020/12/07 03:33:12;;;;;;;1.17;0.97;;;3.90;98.00;;;;;;5091710;28;20512;-62
2020/12/07 03:35:39;;;;;;;1.10;0.97;;;3.90;98.00;;;;;;5089995;28;20906;-61
2020/12/07 03:38:06;;;;;;;1.10;0.90;;;3.90;98.00;;;;;;5091933;28;20981;-61
2020/12/07 03:40:33;;;;;;;1.10;1.00;;;3.80;98.00;;;;;;5090187;28;20451;-62
2020/12/07 03:43:01;;;;;;;1.10;0.90;;;3.70;98.00;;;;;;5091924;28;20459;-62
2020/12/07 03:45:29;;;;;;;1.10;1.00;;;3.80;98.00;;;;;;5090049;28;20504;-62
2020/12/07 03:47:59;;;;;;;1.10;1.00;;;3.80;98.00;;;;;;5091886;28;20451;-62
2020/12/07 03:50:25;;;;;;;1.10;1.00;;;3.80;98.00;;;;;;5089755;28;20463;-62
2020/12/07 03:52:52;;;;;;;1.10;1.00;;;3.80;98.00;;;;;;5091826;28;20528;-62
2020/12/07 03:55:18;;;;;;;1.10;1.00;;;3.80;98.00;;;;;;5090082;28;20941;-63
2020/12/07 03:57:45;;;;;;;1.10;0.90;;;3.80;98.00;;;;;;5091748;28;20486;-63
2020/12/07 04:00:12;;;;;;;1.10;0.90;;;3.80;98.00;;;;;;5089865;28;20459;-62
2020/12/07 04:02:39;;;;;;;1.20;1.13;;;3.80;98.00;;;;;;5091886;28;20462;-62
2020/12/07 04:05:16;;;;;;;1.10;0.90;;;3.80;98.00;;;;;;5090079;28;20455;-62
2020/12/07 04:07:42;;;;;;;1.10;1.00;;;3.90;98.00;;;;;;5091629;28;20451;-62
2020/12/07 04:10:09;;;;;;;1.10;1.00;;;3.90;98.00;;;;;;5090000;28;20456;-62
2020/12/07 04:12:35;;;;;;;1.10;0.90;;;3.80;98.00;;;;;;5091489;28;20859;-62
2020/12/07 04:15:02;;;;;;;3.30;2.23;;;3.90;98.00;;;;;;5089942;28;20487;-63
2020/12/07 04:17:29;;;;;;;1.10;0.90;;;3.90;98.00;;;;;;5091510;28;20489;-63
2020/12/07 04:19:55;;;;;;;1.67;1.20;;;3.90;98.00;;;;;;5090070;28;20479;-62
2020/12/07 04:22:23;;;;;;;1.10;1.00;;;3.80;98.00;;;;;;5095350;28;20482;-62
2020/12/07 04:24:50;;;;;;;1.30;1.30;;;3.80;98.00;;;;;;5094168;28;20934;-62
2020/12/07 04:27:16;;;;;;;1.10;0.90;;;3.80;98.00;;;;;;5094803;28;20460;-62
2020/12/07 04:29:43;;;;;;;1.10;0.90;;;3.80;98.00;;;;;;5095327;28;20458;-62
2020/12/07 04:32:09;;;;;;;1.10;0.90;;;3.90;98.00;;;;;;5093967;28;20511;-62
2020/12/07 04:34:36;;;;;;;1.40;1.30;;;3.90;98.00;;;;;;5095372;28;20482;-62
2020/12/07 04:37:02;;;;;;;1.10;0.90;;;4.00;98.00;;;;;;5093580;28;20851;-61
2020/12/07 04:39:32;;;;;;;1.10;0.90;;;4.00;98.00;;;;;;5095231;28;20490;-63
2020/12/07 04:41:59;;;;;;;1.10;1.00;;;4.00;98.00;;;;;;5093580;28;20461;-62
2020/12/07 04:44:26;;;;;;;1.10;0.90;;;3.90;98.00;;;;;;5095351;28;20467;-62
2020/12/07 04:46:52;;;;;;;1.10;1.00;;;3.90;98.00;;;;;;5093400;28;20455;-61
2020/12/07 04:49:21;;;;;;;1.10;0.90;;;3.90;98.00;;;;;;5095152;28;20447;-61
2020/12/07 04:51:49;;;;;;;1.10;0.90;;;4.00;98.00;;;;;;5093534;28;20454;-63
2020/12/07 04:54:17;;;;;;;1.10;0.90;;;4.00;98.00;;;;;;5095097;28;20779;-62
2020/12/07 04:56:45;;;;;;;1.10;1.00;;;4.00;98.00;;;;;;5092127;28;20455;-62
2020/12/07 04:59:12;;;;;;;1.10;1.00;;;4.00;98.00;;;;;;5094675;28;20499;-63
2020/12/07 05:01:39;;;;;;;1.60;1.20;;;4.00;98.00;;;;;;5091857;28;20458;-62
2020/12/07 05:04:06;;;;;;;1.10;0.90;;;4.00;98.00;;;;;;5094889;28;20483;-63
2020/12/07 05:06:33;;;;;;;1.37;1.07;;;3.90;98.00;;;;;;5092747;28;20455;-62
2020/12/07 05:09:01;;;;;;;1.10;0.90;;;3.90;98.00;;;;;;5094716;28;20451;-62
2020/12/07 05:11:28;;;;;;;1.10;0.90;;;3.90;98.00;;;;;;5093249;28;20483;-62
2020/12/07 05:14:02;;;;;;;1.10;1.00;;;4.00;98.00;;;;;;5094427;28;20479;-62
2020/12/07 05:16:28;;;;;;;1.10;1.00;;;4.10;98.00;;;;;;5093259;28;20461;-62
2020/12/07 05:19:01;;;;;;;1.10;1.00;;;4.20;98.00;;;;;;5094667;28;20490;-62
2020/12/07 05:21:28;;;;;;;1.10;0.90;;;4.10;98.00;;;;;;5093015;28;20538;-62
2020/12/07 05:23:56;;;;;;;1.97;1.20;;;4.00;98.00;;;;;;5094559;28;20454;-64
2020/12/07 05:26:22;;;;;;;1.10;0.90;;;4.00;98.00;;;;;;5092721;28;21005;-62
2020/12/07 05:28:51;;;;;;;1.10;0.90;;;4.00;98.00;;;;;;5094308;28;20513;-62
2020/12/07 05:31:20;;;;;;;1.10;1.00;;;3.90;98.00;;;;;;5092951;28;20443;-61
2020/12/07 05:33:47;;;;;;;1.10;1.00;;;3.80;98.00;;;;;;5093702;28;20479;-63
2020/12/07 05:36:15;;;;;;;1.10;0.90;;;3.90;98.00;;;;;;5092741;28;20452;-61
2020/12/07 05:38:43;;;;;;;1.10;1.00;;;3.90;98.00;;;;;;5094485;28;20536;-61
2020/12/07 05:41:11;;;;;;;1.10;1.00;;;3.80;98.00;;;;;;5092551;28;20539;-62
2020/12/07 05:43:39;;;;;;;1.10;0.93;;;3.60;98.00;;;;;;5094464;28;20474;-62
2020/12/07 05:46:06;;;;;;;1.50;1.50;;;3.50;98.00;;;;;;5092263;28;20444;-64
2020/12/07 05:48:35;;;;;;;1.30;1.23;;;3.50;98.00;;;;;;5094067;28;20452;-63
2020/12/07 05:51:04;;;;;;;1.10;1.00;;;3.40;98.00;;;;;;5093268;28;20540;-64
2020/12/07 05:53:35;;;;;;;1.20;1.00;;;3.30;98.00;;;;;;5093821;28;20546;-62
2020/12/07 05:56:04;;;;;;;1.83;1.37;;;3.20;98.00;;;;;;5093957;28;20485;-63
2020/12/07 05:58:40;;;;;;;1.10;1.00;;;3.20;98.00;;;;;;5092069;28;20845;-63
2020/12/07 06:01:10;;;;;;;1.10;0.90;;;3.10;98.00;;;;;;5093702;28;20881;-62
2020/12/07 06:03:42;;;;;;;1.10;1.00;;;3.10;98.00;;;;;;5091733;28;20961;-62
2020/12/07 06:06:08;;;;;;;1.60;1.30;;;3.20;98.00;;;;;;5093852;28;20527;-63
2020/12/07 06:08:37;;;;;;;1.10;0.90;;;3.10;98.00;;;;;;5092034;28;20520;-62
2020/12/07 06:11:08;;;;;;;1.10;1.00;;;3.10;98.00;;;;;;5093615;28;20459;-62
2020/12/07 06:13:35;;;;;;;1.10;1.00;;;3.00;98.00;;;;;;5091638;28;20447;-62
2020/12/07 06:16:04;;;;;;;1.10;1.00;;;3.10;98.00;;;;;;5093676;28;20466;-63
2020/12/07 06:18:32;;;;;;;1.10;1.00;;;3.10;98.00;;;;;;5091705;28;20976;-62
2020/12/07 06:21:05;;;;;;;1.10;1.00;;;3.00;98.00;;;;;;5093400;28;20984;-62
2020/12/07 06:23:34;;;;;;;1.10;1.00;;;3.00;98.00;;;;;;5091588;28;20506;-63
2020/12/07 06:26:03;;;;;;;1.10;0.90;;;3.00;98.00;;;;;;5093035;28;20455;-64
2020/12/07 06:28:33;;;;;;;1.10;1.00;;;3.00;98.00;;;;;;5091660;28;20452;-62
2020/12/07 06:31:07;;;;;;;1.33;1.27;;;3.00;98.00;;;;;;5093278;28;20462;-62
2020/12/07 06:33:44;;;;;;;1.10;1.00;;;2.90;98.00;;;;;;5091463;28;20443;-62
2020/12/07 06:36:26;;;;;;;1.10;1.00;;;2.90;98.00;;;;;;5093246;28;20767;-62
2020/12/07 06:38:56;;;;;;;1.10;0.97;;;2.80;98.00;;;;;;5091202;28;20482;-62
2020/12/07 06:41:38;;;;;;;1.10;0.90;;;3.00;98.00;;;;;;5092893;28;20455;-62
2020/12/07 06:44:08;;;;;;;1.30;1.13;;;3.00;98.00;;;;;;5091118;28;20450;-63
2020/12/07 06:46:55;;;;;;;1.40;1.30;;;2.90;98.00;;;;;;5092750;28;20470;-63
2020/12/07 06:49:36;;;;;;;1.10;0.90;;;2.90;98.00;;;;;;5092565;28;20455;-63
2020/12/07 06:52:10;;;;;;;1.10;0.90;;;2.90;98.00;;;;;;5090887;28;20513;-63
2020/12/07 06:57:24;;;;;;;1.10;0.93;;;3.10;98.00;;;;;;5090634;28;20935;-63
2020/12/07 06:59:59;;;;;;;1.67;1.50;;;3.20;98.00;;;;;;5092150;28;20567;-63
2020/12/07 07:02:26;;;;;;;1.10;1.00;;;3.30;98.00;;;;;;5090706;28;20481;-63
2020/12/07 07:04:54;;;;;;;1.10;1.00;;;3.30;98.00;;;;;;5092633;28;20929;-63
2020/12/07 07:07:23;;;;;;;1.10;0.90;;;3.30;98.00;;;;;;5090556;28;20451;-64
2020/12/07 07:09:51;;;;;;;1.10;1.00;;;3.30;98.00;;;;;;5092603;28;20499;-63
2020/12/07 07:12:18;;;;;;;1.10;1.00;;;3.20;98.00;;;;;;5090623;28;20455;-63
2020/12/07 07:14:48;;;;;;;1.10;0.90;;;3.20;98.00;;;;;;5092503;28;20521;-62
2020/12/07 07:17:15;;;;;;;1.10;1.00;;;3.20;98.00;;;;;;5090559;28;20525;-62
2020/12/07 07:19:41;;;;;;;1.30;1.20;;;3.20;98.00;;;;;;5092243;28;20479;-63
2020/12/07 07:22:08;;;;;;;1.10;0.93;;;3.20;98.00;;;;;;5092334;28;20452;-63
2020/12/07 07:24:45;;;;;;;1.10;0.90;;;3.40;98.00;;;;;;5089092;28;21010;-63
2020/12/07 07:29:56;;;;;;;1.10;0.90;;;3.30;98.00;;;;;;5092144;28;20466;-62
2020/12/07 07:32:23;;;;;;;1.20;1.10;;;3.40;98.00;;;;;;5090637;28;20852;-63
2020/12/07 07:34:50;;;;;;;1.10;0.90;;;3.50;98.00;;;;;;5092022;28;20452;-61
2020/12/07 07:37:17;;;;;;;1.10;1.00;;;3.50;98.00;;;;;;5091820;28;20460;-62
2020/12/07 07:39:46;;;;;;;1.10;1.00;;;3.60;98.00;;;;;;5089983;28;20483;-63
2020/12/07 07:42:15;;;;;;;1.83;1.13;;;3.60;98.00;;;;;;5091802;28;20486;-62
2020/12/07 07:44:45;;;;;;;1.10;1.00;;;3.60;98.00;;;;;;5089845;28;20443;-62
2020/12/07 07:47:16;;;;;;;1.10;0.90;;;3.50;98.00;;;;;;5091573;28;20447;-63
2020/12/07 07:50:08;;;;;;;1.10;0.90;;;3.50;98.00;;;;;;5089987;28;20440;-64
2020/12/07 08:15:46;;;;;;;1.10;1.00;;;4.20;98.00;;;;;;5090901;28;20448;-62
2020/12/07 08:18:18;;;;;;;1.30;1.20;;;4.10;98.00;;;;;;5088743;28;20444;-63
2020/12/07 08:20:52;;;;;;;1.10;0.90;;;4.10;98.00;;;;;;5090650;28;20448;-62
2020/12/07 08:23:27;;;;;;;1.10;1.00;;;4.00;98.00;;;;;;5089018;28;20447;-61
2020/12/07 08:25:54;;;;;;;1.20;1.10;;;4.20;98.00;;;;;;5091105;28;20569;-62
2020/12/07 08:28:36;;;;;;;1.10;0.90;;;4.30;98.00;;;;;;5089223;28;20513;-62
2020/12/07 08:31:09;;;;;;;1.10;1.00;;;4.40;98.00;;;;;;5091107;28;20448;-62
2020/12/07 08:33:38;;;;;;;1.10;0.90;;;4.40;98.00;;;;;;5088060;28;20872;-64
2020/12/07 08:36:05;;;;;;;1.30;1.13;;;4.50;98.00;;;;;;5090501;28;20456;-64
2020/12/07 08:38:35;;;;;;;1.10;1.00;;;4.60;98.00;;;;;;5088929;28;20488;-62
2020/12/07 08:41:11;;;;;;;1.10;0.90;;;4.80;98.00;;;;;;5090488;28;20460;-62
2020/12/07 08:43:43;;;;;;;1.10;1.00;;;4.80;98.00;;;;;;5088580;28;20542;-63
2020/12/07 08:46:11;;;;;;;1.10;1.00;;;4.60;98.00;;;;;;5090373;28;20504;-62
2020/12/07 08:48:38;;;;;;;1.67;1.57;;;4.50;98.00;;;;;;5088644;28;20505;-62
2020/12/07 08:51:06;;;;;;;1.10;1.00;;;4.40;98.00;;;;;;5090338;28;20448;-62
2020/12/07 08:53:33;;;;;;;1.10;0.90;;;4.40;98.00;;;;;;5088700;28;20826;-63
2020/12/07 08:56:00;;;;;;;2.70;1.67;;;4.30;98.00;;;;;;5090443;28;20452;-63
2020/12/07 08:58:26;;;;;;;1.10;1.03;;;4.50;98.00;;;;;;5088563;28;20485;-62
2020/12/07 09:00:54;;;;;;;1.10;1.00;;;4.60;98.00;;;;;;5090689;28;20464;-61
2020/12/07 09:03:20;;;;;;;1.10;0.90;;;4.70;98.00;;;;;;5090581;28;20927;-61
2020/12/07 09:05:47;;;;;;;1.20;1.20;;;4.80;98.00;;;;;;5088188;28;20873;-61
2020/12/07 09:08:13;;;;;;;1.10;1.00;;;4.70;98.00;;;;;;5094116;28;20452;-61
2020/12/07 09:10:40;;;;;;;1.10;0.90;;;4.80;98.00;;;;;;5091115;28;20544;-62
2020/12/07 09:13:06;;;;;;;1.10;0.90;;;5.50;98.00;;;;;;5094280;28;20891;-64
2020/12/07 09:15:33;;;;;;;1.10;1.00;;;6.20;98.00;;;;;;5091724;28;20452;-62
2020/12/07 09:18:02;;;;;;;1.20;1.00;;;6.80;98.00;;;;;;5094175;28;21004;-62
2020/12/07 09:20:28;;;;;;;1.20;0.90;;;7.30;98.00;;;;;;5091659;27;20491;-62
2020/12/07 09:22:55;;;;;;;2.90;1.33;;;7.40;98.00;;;;;;5094099;28;20454;-62
2020/12/07 09:25:22;;;;;;;1.50;1.20;;;7.70;98.00;;;;;;5091757;28;20458;-62
2020/12/07 09:27:49;;;;;;;1.20;1.00;;;8.00;98.00;;;;;;5093949;28;20454;-63
2020/12/07 09:30:17;;;;;;;1.20;0.90;;;8.20;98.00;;;;;;5091668;28;20512;-63
2020/12/07 09:32:43;;;;;;;1.20;1.10;;;7.60;98.00;;;;;;5093922;28;20829;-64
2020/12/07 09:35:11;;;;;;;1.37;1.27;;;7.60;98.00;;;;;;5091363;28;21355;-62
2020/12/07 09:37:37;;;;;;;1.50;1.20;;;7.20;98.00;;;;;;5093473;28;20509;-64
2020/12/07 09:40:05;;;;;;;1.37;1.20;;;6.90;98.00;;;;;;5091648;28;20533;-64
2020/12/07 09:42:33;;;;;;;1.20;1.00;;;6.70;98.00;;;;;;5093478;28;20454;-64
2020/12/07 09:45:00;;;;;;;1.30;1.10;;;6.40;98.00;;;;;;5090205;28;20969;-62
2020/12/07 09:47:28;;;;;;;1.20;1.00;;;6.20;98.00;;;;;;5093181;28;20521;-62
2020/12/07 09:49:55;;;;;;;2.17;1.50;;;6.20;98.00;;;;;;5091531;28;20454;-62
2020/12/07 09:52:22;;;;;;;2.50;1.40;;;6.30;98.00;;;;;;5093387;28;20466;-62
2020/12/07 09:54:48;;;;;;;1.20;1.10;;;6.30;98.00;;;;;;5091507;28;20450;-62
2020/12/07 09:57:15;;;;;;;1.20;0.90;;;6.30;98.00;;;;;;5092902;28;20935;-62
2020/12/07 09:59:42;;;;;;;1.20;1.00;;;6.10;98.00;;;;;;5091010;28;20527;-63
2020/12/07 10:02:09;;;;;;;1.20;1.00;;;5.90;98.00;;;;;;5093209;28;20563;-63
2020/12/07 10:04:37;;;;;;;2.27;1.43;;;5.80;98.00;;;;;;5091270;28;20459;-63
2020/12/07 10:07:03;;;;;;;1.20;1.00;;;5.90;98.00;;;;;;5092812;28;20531;-64
2020/12/07 10:09:31;;;;;;;1.20;1.00;;;5.80;98.00;;;;;;5092854;28;20842;-62
2020/12/07 10:11:57;;;;;;;1.20;1.00;;;5.70;98.00;;;;;;5090999;28;20489;-63
2020/12/07 10:14:24;;;;;;;1.20;1.10;;;5.70;98.00;;;;;;5092856;28;20448;-63
2020/12/07 10:16:50;;;;;;;1.20;0.97;;;5.70;98.00;;;;;;5090736;28;20460;-64
2020/12/07 10:19:17;;;;;;;1.50;1.40;;;5.70;98.00;;;;;;5092041;28;20545;-61
2020/12/07 10:21:43;;;;;;;1.20;0.90;;;5.80;98.00;;;;;;5091237;28;20513;-62
2020/12/07 10:24:10;;;;;;;1.20;0.90;;;5.80;98.00;;;;;;5092763;28;20652;-63
2020/12/07 10:26:37;;;;;;;1.20;1.00;;;5.80;98.00;;;;;;5090530;28;20455;-62
2020/12/07 10:29:04;;;;;;;1.20;1.00;;;5.70;98.00;;;;;;5092983;28;20478;-62
2020/12/07 10:31:30;;;;;;;1.47;1.20;;;5.70;98.00;;;;;;5091033;28;20455;-61
2020/12/07 10:33:57;;;;;;;1.20;1.00;;;5.80;98.00;;;;;;5092926;28;20521;-63
2020/12/07 10:36:24;;;;;;;2.60;1.60;;;6.10;98.00;;;;;;5090558;28;20459;-62
2020/12/07 10:38:52;;;;;;;1.20;1.00;;;6.10;98.00;;;;;;5092607;28;20475;-62
2020/12/07 10:41:18;;;;;;;1.20;1.10;;;6.10;98.00;;;;;;5090695;28;20451;-63
2020/12/07 10:43:46;;;;;;;1.20;1.00;;;6.10;98.00;;;;;;5092734;28;20448;-62
2020/12/07 10:46:13;;;;;;;1.20;1.00;;;6.20;98.00;;;;;;5090046;28;20884;-62
2020/12/07 10:48:40;;;;;;;1.20;1.00;;;6.20;98.00;;;;;;5092523;28;20444;-61
2020/12/07 10:51:11;;;;;;;1.20;1.00;;;6.30;98.00;;;;;;5090380;28;20475;-61
2020/12/07 10:53:37;;;;;;;1.37;1.17;;;6.40;98.00;;;;;;5092198;28;20452;-62
2020/12/07 10:56:06;;;;;;;1.50;1.20;;;6.30;98.00;;;;;;5090388;28;20513;-61
2020/12/07 10:58:32;;;;;;;1.30;1.20;;;6.10;98.00;;;;;;5091972;28;20456;-62
2020/12/07 11:01:00;;;;;;;1.20;1.00;;;5.90;98.00;;;;;;5089959;28;21255;-61
2020/12/07 11:03:26;;;;;;;1.20;1.10;;;5.90;98.00;;;;;;5091857;28;20452;-62
2020/12/07 11:05:55;;;;;;;1.20;1.00;;;5.80;98.00;;;;;;5090080;28;20513;-62
2020/12/07 11:08:29;;;;;;;1.20;1.00;;;5.80;98.00;;;;;;5091863;28;20641;-61
2020/12/07 11:10:56;;;;;;;1.20;1.00;;;5.80;98.00;;;;;;5089960;28;20531;-62
2020/12/07 11:13:27;;;;;;;1.30;1.10;;;5.90;98.00;;;;;;5091781;28;20456;-62
2020/12/07 11:15:54;;;;;;;1.30;1.20;;;5.90;98.00;;;;;;5089703;28;20542;-63
2020/12/07 11:18:22;;;;;;;1.30;1.20;;;5.90;98.00;;;;;;5091566;28;20517;-63
2020/12/07 11:20:49;;;;;;;1.77;1.13;;;5.90;98.00;;;;;;5090480;28;20464;-62
2020/12/07 11:23:15;;;;;;;1.33;1.27;;;6.00;98.00;;;;;;5091469;28;20452;-61
2020/12/07 11:25:42;;;;;;;1.20;1.10;;;6.00;98.00;;;;;;5089601;28;20460;-61
2020/12/07 11:28:08;;;;;;;1.20;1.00;;;6.20;98.00;;;;;;5091710;28;20456;-61
2020/12/07 11:30:36;;;;;;;1.20;1.07;;;6.40;98.00;;;;;;5090220;28;21011;-62
2020/12/07 11:33:02;;;;;;;1.30;1.10;;;6.50;98.00;;;;;;5089790;28;20453;-62
2020/12/07 11:35:30;;;;;;;1.33;1.20;;;6.60;98.00;;;;;;5091183;28;21107;-62
2020/12/07 11:38:02;;;;;;;1.20;1.00;;;6.70;98.00;;;;;;5089854;28;20461;-61
2020/12/07 11:43:32;;;;;;;1.30;1.10;;;7.00;98.00;;;;;;5090751;28;20454;-62
2020/12/07 11:45:59;;;;;;;1.20;1.00;;;6.90;98.00;;;;;;5089108;28;20484;-62
2020/12/07 11:48:25;;;;;;;1.20;0.90;;;6.90;98.00;;;;;;5091234;28;20524;-63
2020/12/07 11:50:53;;;;;;;1.20;1.00;;;7.00;98.00;;;;;;5090793;28;20509;-62
2020/12/07 11:53:19;;;;;;;1.20;1.00;;;7.10;98.00;;;;;;5090276;28;20491;-62
2020/12/07 11:55:46;;;;;;;1.20;0.90;;;7.20;98.00;;;;;;5090804;28;20508;-62
2020/12/07 11:58:12;;;;;;;1.20;1.00;;;7.20;98.00;;;;;;5089373;28;21011;-62
2020/12/07 12:00:39;;;;;;;1.90;1.10;;;7.30;98.00;;;;;;5089424;28;20581;-62
2020/12/07 12:03:05;;;;;;;1.30;1.10;;;7.20;98.00;;;;;;5089083;28;20457;-61
2020/12/07 12:05:32;;;;;;;1.20;0.97;;;7.20;98.00;;;;;;5090674;28;20449;-62
2020/12/07 12:08:00;;;;;;;1.30;1.10;;;7.20;98.00;;;;;;5089219;28;20930;-62
2020/12/07 12:10:26;;;;;;;1.20;1.00;;;7.10;98.00;;;;;;5090766;28;20455;-62
2020/12/07 12:12:53;;;;;;;1.20;0.90;;;7.10;98.00;;;;;;5088976;28;20457;-63
2020/12/07 12:15:19;;;;;;;1.20;0.90;;;7.00;98.00;;;;;;5090596;28;20461;-61
2020/12/07 12:17:46;;;;;;;1.20;1.00;;;7.00;98.00;;;;;;5089206;28;20452;-61
2020/12/07 12:20:13;;;;;;;1.20;0.90;;;7.10;98.00;;;;;;5091000;28;20531;-61
2020/12/07 12:22:39;;;;;;;1.63;1.60;;;7.10;98.00;;;;;;5089271;28;20452;-62
2020/12/07 12:25:07;;;;;;;1.20;1.00;;;7.10;98.00;;;;;;5090789;28;20452;-62
2020/12/07 12:27:33;;;;;;;1.20;1.00;;;7.10;98.00;;;;;;5089124;28;20508;-61
2020/12/07 12:30:00;;;;;;;1.90;1.10;;;7.10;98.00;;;;;;5091125;28;20505;-62
2020/12/07 12:32:26;;;;;;;1.20;0.90;;;7.10;98.00;;;;;;5089629;28;20451;-61
2020/12/07 12:34:53;;;;;;;1.57;1.20;;;;;;;;;;5091224;28;20448;-63
2020/12/07 12:37:19;;;;;;;1.20;0.90;;;8.20;98.00;;;;;;5089094;28;20455;-63
2020/12/07 12:39:46;;;;;;;1.20;1.03;;;8.80;98.00;;;;;;5090952;28;20516;-63
2020/12/07 12:42:13;;;;;;;1.20;1.10;;;9.10;98.00;;;;;;5091914;28;20536;-62
2020/12/07 12:44:40;;;;;;;1.70;1.20;;;9.50;98.00;;;;;;5095229;28;20454;-62
2020/12/07 12:47:06;;;;;;;3.33;1.47;;;9.40;98.00;;;;;;5093394;28;20444;-62
2020/12/07 12:49:33;;;;;;;1.20;1.07;;;9.00;98.00;;;;;;5094828;28;20550;-62
2020/12/07 12:51:59;;;;;;;1.20;1.00;;;8.60;98.00;;;;;;5092648;28;20453;-62
2020/12/07 12:54:25;;;;;;;1.20;1.00;;;8.40;98.00;;;;;;5094846;28;21054;-62
2020/12/07 12:56:52;;;;;;;1.20;1.00;;;8.20;98.00;;;;;;5093021;28;20788;-63
2020/12/07 12:59:19;;;;;;;1.20;1.03;;;8.10;98.00;;;;;;5094471;28;20494;-62
2020/12/07 13:01:46;;;;;;;1.30;1.20;;;8.00;98.00;;;;;;5094056;28;20441;-62
2020/12/07 13:04:12;;;;;;;1.20;1.10;;;7.80;98.00;;;;;;5094037;28;20776;-62
2020/12/07 13:06:46;;;;;;;1.20;1.00;;;7.80;98.00;;;;;;5094822;28;20451;-62
2020/12/07 13:09:12;;;;;;;1.30;1.10;;;7.80;98.00;;;;;;5092805;28;20505;-63
2020/12/07 13:11:42;;;;;;;1.20;1.10;;;7.60;98.00;;;;;;5094712;28;20855;-62
2020/12/07 13:14:08;;;;;;;1.20;0.97;;;7.60;98.00;;;;;;5092632;28;20454;-63
2020/12/07 13:16:48;;;;;;;1.20;1.00;;;7.60;98.00;;;;;;5094403;28;20445;-62
2020/12/07 13:19:16;;;;;;;2.63;1.37;;;7.60;98.00;;;;;;5092437;28;21083;-63
2020/12/07 13:21:50;;;;;;;1.20;1.00;;;7.60;98.00;;;;;;5094510;28;20454;-62
2020/12/07 13:24:21;;;;;;;1.90;1.20;;;7.60;98.00;;;;;;5090974;28;20450;-62
2020/12/07 13:26:53;;;;;;;1.20;0.97;;;7.40;98.00;;;;;;5094316;28;20485;-63
2020/12/07 13:29:20;;;;;;;2.33;1.70;;;7.20;98.00;;;;;;5092133;28;20448;-63
2020/12/07 13:31:47;;;;;;;1.20;1.00;;;7.20;98.00;;;;;;5094094;28;20499;-62
2020/12/07 13:34:14;;;;;;;1.20;1.00;;;7.30;98.00;;;;;;5092528;28;20530;-62